Lemay, Missouri
Current Conditions -  °F | °C
As of 6:09 AM on Monday 24 Nov 2014 (Local Time) from KCPS Reporting Station
Overcast Overcast  
Wind Chill: 32°   Ceiling: 2800
Heat Index: 40°   Visibility: 10mi
Dew Point: 34°   Wind: 14mph
Humidity: 79%   Direction: 270°W
Pressure: 29.47"   Gusts: 23mph
Location:  38.5192°N, 90.2945°W
Report Text: KCPS 241209Z AUTO 27012G20KT 10SM FEW020 BKN028 OVC039 04/01 A2947 RMK AO2 T00440011 TSNO
Loading
Personal Weather Stations






























Interactive Weather Map New forecast layout! Learn more

10-Day Weather Forecast

Advertisements
Track Severe Weather on mobile